createdAt,value
2022-08-08T00:00:41.121Z,4.60
2022-08-08T00:06:03.931Z,4.50
2022-08-08T00:11:17.578Z,5.70
2022-08-08T00:16:37.279Z,4.90
2022-08-08T00:21:51.644Z,4.90
2022-08-08T00:26:59.144Z,5.20
2022-08-08T00:32:33.005Z,6.00
2022-08-08T00:38:01.952Z,5.50
2022-08-08T00:43:39.947Z,6.10
2022-08-08T00:49:05.139Z,6.00
2022-08-08T00:54:43.413Z,8.60
2022-08-08T01:00:06.473Z,6.50
2022-08-08T01:05:59.156Z,5.30
2022-08-08T01:11:43.255Z,7.20
2022-08-08T01:17:35.069Z,6.80
2022-08-08T01:24:06.130Z,6.40
2022-08-08T01:29:24.223Z,4.20
2022-08-08T01:40:14.599Z,5.30
2022-08-08T01:45:37.585Z,5.00
2022-08-08T01:50:58.211Z,6.20
2022-08-08T01:56:28.559Z,7.10
2022-08-08T02:02:03.120Z,9.00
2022-08-08T02:07:16.628Z,6.20
2022-08-08T02:12:31.927Z,5.60
2022-08-08T02:17:44.213Z,8.00
2022-08-08T02:22:58.874Z,7.70
2022-08-08T02:28:09.869Z,5.50
2022-08-08T02:34:00.199Z,5.20
2022-08-08T02:39:40.755Z,7.40
2022-08-08T02:45:22.613Z,8.30
2022-08-08T02:50:58.660Z,7.70
2022-08-08T02:56:34.870Z,5.80
2022-08-08T03:02:20.361Z,4.80
2022-08-08T03:08:02.356Z,6.80
2022-08-08T03:16:00.297Z,5.10
2022-08-08T03:19:50.841Z,6.30
2022-08-08T03:24:57.003Z,5.30
2022-08-08T03:30:05.489Z,6.40
2022-08-08T03:35:12.974Z,8.50
2022-08-08T03:40:29.723Z,8.50
2022-08-08T03:46:03.307Z,4.80
2022-08-08T03:50:58.668Z,5.10
2022-08-08T03:56:04.521Z,5.40
2022-08-08T04:01:23.345Z,4.80
2022-08-08T04:06:30.504Z,6.00
2022-08-08T04:11:58.042Z,8.20
2022-08-08T04:17:06.944Z,9.80
2022-08-08T04:22:26.837Z,5.90
2022-08-08T04:28:03.677Z,5.70
2022-08-08T04:32:58.348Z,6.80
2022-08-08T04:38:02.606Z,7.90
2022-08-08T04:43:08.857Z,5.90
2022-08-08T04:48:16.563Z,7.10
2022-08-08T04:54:27.444Z,4.70
2022-08-08T04:58:50.697Z,7.40
2022-08-08T05:04:10.272Z,10.90
2022-08-08T05:09:16.737Z,7.20
2022-08-08T05:14:21.351Z,6.50
2022-08-08T05:20:10.911Z,6.30
2022-08-08T05:24:57.492Z,6.80
2022-08-08T05:30:03.817Z,6.80
2022-08-08T05:35:13.683Z,9.20
2022-08-08T05:40:18.709Z,6.20
2022-08-08T05:45:41.661Z,6.00
2022-08-08T05:50:58.991Z,6.30
2022-08-08T05:56:20.442Z,7.20
2022-08-08T06:01:56.359Z,9.40
2022-08-08T06:07:03.704Z,8.20
2022-08-08T06:12:10.175Z,9.70
2022-08-08T06:17:50.570Z,8.40
2022-08-08T06:22:46.884Z,8.30
2022-08-08T06:27:57.811Z,7.90
2022-08-08T06:33:04.025Z,6.90
2022-08-08T06:38:18.948Z,12.00
2022-08-08T06:43:28.520Z,8.80
2022-08-08T06:48:35.908Z,8.20
2022-08-08T06:53:50.961Z,9.70
2022-08-08T06:59:00.296Z,11.40
2022-08-08T07:04:41.611Z,9.60
2022-08-08T07:09:45.286Z,8.80
2022-08-08T07:15:06.329Z,8.60
2022-08-08T07:20:32.609Z,9.70
2022-08-08T07:25:59.807Z,9.70
2022-08-08T07:31:04.616Z,7.60
2022-08-08T07:36:11.240Z,8.80
2022-08-08T07:41:23.893Z,7.30
2022-08-08T07:46:32.411Z,8.20
2022-08-08T07:51:45.173Z,9.80
2022-08-08T07:57:10.923Z,9.10
2022-08-08T08:02:36.909Z,6.50
2022-08-08T08:07:42.998Z,7.00
2022-08-08T08:12:57.535Z,8.10
2022-08-08T08:18:06.855Z,9.20
2022-08-08T08:23:18.387Z,6.00
2022-08-08T08:28:24.130Z,7.10
2022-08-08T08:33:28.542Z,4.80
2022-08-08T08:38:32.329Z,6.40
2022-08-08T08:43:42.419Z,6.20
2022-08-08T08:48:51.544Z,5.90
2022-08-08T08:54:00.994Z,6.00
2022-08-08T08:59:05.809Z,6.40
2022-08-08T09:04:30.148Z,9.20
2022-08-08T09:09:47.952Z,11.90
2022-08-08T09:14:55.630Z,8.00
2022-08-08T09:21:56.278Z,5.20
2022-08-08T09:25:36.233Z,5.10
2022-08-08T09:30:53.964Z,5.70
2022-08-08T09:36:02.287Z,7.50
2022-08-08T09:41:10.190Z,6.20
2022-08-08T09:46:25.505Z,4.90
2022-08-08T09:52:07.536Z,4.60
2022-08-08T09:57:16.072Z,4.10
2022-08-08T10:02:25.956Z,4.90
2022-08-08T10:07:43.230Z,6.40
2022-08-08T10:12:53.349Z,3.60
2022-08-08T10:18:06.135Z,5.40
2022-08-08T10:23:29.271Z,5.60
2022-08-08T10:29:07.266Z,4.70
2022-08-08T10:34:21.447Z,6.90
2022-08-08T10:39:43.146Z,5.80
2022-08-08T10:45:01.228Z,5.40
2022-08-08T10:50:07.999Z,4.10
2022-08-08T10:55:15.377Z,3.90
2022-08-08T11:00:25.647Z,6.20
2022-08-08T11:05:38.957Z,3.90
2022-08-08T11:10:44.263Z,3.90
2022-08-08T11:16:00.339Z,5.40
2022-08-08T11:21:10.307Z,5.10
2022-08-08T11:26:28.160Z,7.90
2022-08-08T11:31:46.955Z,7.40
2022-08-08T11:36:58.576Z,4.60
2022-08-08T11:42:09.174Z,4.50
2022-08-08T11:47:17.140Z,5.50
2022-08-08T11:52:27.474Z,6.40
2022-08-08T11:57:36.051Z,3.80
2022-08-08T12:02:51.078Z,3.60
2022-08-08T12:07:56.840Z,6.70
2022-08-08T12:13:06.186Z,6.80
2022-08-08T12:18:28.621Z,4.90
2022-08-08T12:23:43.711Z,6.20
2022-08-08T12:34:03.245Z,5.00
2022-08-08T12:39:08.020Z,4.40
2022-08-08T12:44:32.021Z,4.90
2022-08-08T12:49:46.563Z,5.70
2022-08-08T12:55:09.422Z,5.30
2022-08-08T13:00:34.204Z,5.00
2022-08-08T13:06:04.985Z,5.70
2022-08-08T13:11:18.619Z,4.20
2022-08-08T13:16:25.613Z,8.00
2022-08-08T13:21:53.686Z,5.50
2022-08-08T13:27:03.523Z,6.00
2022-08-08T13:32:14.519Z,6.70
2022-08-08T13:37:28.036Z,4.30
2022-08-08T13:42:46.111Z,5.50
2022-08-08T13:47:58.202Z,5.70
2022-08-08T13:53:02.107Z,4.70
2022-08-08T13:58:29.104Z,5.40
2022-08-08T14:03:52.530Z,4.30
2022-08-08T14:08:58.056Z,5.50
2022-08-08T14:14:04.901Z,4.60
2022-08-08T14:19:17.682Z,5.30
2022-08-08T14:24:34.248Z,3.20
2022-08-08T14:29:39.446Z,3.30
2022-08-08T14:34:49.569Z,3.50
2022-08-08T14:40:06.703Z,3.20
2022-08-08T14:45:13.333Z,4.70
2022-08-08T14:50:37.577Z,5.30
2022-08-08T14:55:43.717Z,4.10
2022-08-08T15:00:49.823Z,5.40
2022-08-08T15:05:58.820Z,4.30
2022-08-08T15:11:04.714Z,7.70
2022-08-08T15:16:12.049Z,3.40
2022-08-08T15:21:18.468Z,5.20
2022-08-08T15:26:25.793Z,6.60
2022-08-08T15:32:03.867Z,5.90
2022-08-08T15:36:56.653Z,4.30
2022-08-08T15:42:02.055Z,8.20
2022-08-08T15:47:15.791Z,6.10
2022-08-08T15:52:25.005Z,6.70
2022-08-08T15:57:35.304Z,7.10
2022-08-08T16:02:50.976Z,6.10
2022-08-08T16:07:56.447Z,5.20
2022-08-08T16:13:28.531Z,3.60
2022-08-08T16:18:28.699Z,6.70
2022-08-08T16:23:34.046Z,4.00
2022-08-08T16:28:38.492Z,5.60
2022-08-08T16:33:49.836Z,5.80
2022-08-08T16:39:16.554Z,5.20
2022-08-08T16:44:54.515Z,4.90
2022-08-08T16:50:04.506Z,5.30
2022-08-08T16:55:33.898Z,4.40
2022-08-08T17:00:36.338Z,6.30
2022-08-08T17:05:44.577Z,4.80
2022-08-08T17:10:58.187Z,3.70
2022-08-08T17:16:03.699Z,4.70
2022-08-08T17:21:11.703Z,4.20
2022-08-08T17:26:16.472Z,6.40
2022-08-08T17:31:44.797Z,5.50
2022-08-08T17:37:00.642Z,7.50
2022-08-08T17:42:07.930Z,5.20
2022-08-08T17:47:15.982Z,6.80
2022-08-08T17:52:28.132Z,4.50
2022-08-08T17:57:35.339Z,7.30
2022-08-08T18:02:39.818Z,6.20
2022-08-08T18:08:01.994Z,8.90
2022-08-08T18:13:08.946Z,9.20
2022-08-08T18:18:29.403Z,8.70
2022-08-08T18:23:36.984Z,9.10
2022-08-08T18:28:54.894Z,11.30
2022-08-08T18:34:11.221Z,10.10
2022-08-08T18:39:27.848Z,10.20
2022-08-08T18:44:36.202Z,9.90
2022-08-08T18:49:57.517Z,12.10
2022-08-08T18:55:09.846Z,7.60
2022-08-08T19:00:19.844Z,7.60
2022-08-08T19:05:32.070Z,11.80
2022-08-08T19:10:41.892Z,9.60
2022-08-08T19:15:48.431Z,10.60
2022-08-08T19:20:56.172Z,8.90
2022-08-08T19:26:19.856Z,8.90
2022-08-08T19:31:23.573Z,9.90
2022-08-08T19:36:36.103Z,8.70
2022-08-08T19:41:42.773Z,9.90
2022-08-08T19:46:46.861Z,8.00
2022-08-08T19:51:51.584Z,7.40
2022-08-08T19:56:56.575Z,9.60
2022-08-08T20:02:03.174Z,7.30
2022-08-08T20:08:28.105Z,8.20
2022-08-08T20:12:35.559Z,11.20
2022-08-08T20:17:40.639Z,8.70
2022-08-08T20:22:45.799Z,9.70
2022-08-08T20:27:54.161Z,14.20
2022-08-08T20:32:58.468Z,10.20
2022-08-08T20:43:16.435Z,14.30
2022-08-08T20:48:28.336Z,11.40
2022-08-08T20:54:00.657Z,14.10
2022-08-08T20:58:58.543Z,9.10
2022-08-08T21:04:02.194Z,10.10
2022-08-08T21:09:06.496Z,14.30
2022-08-08T21:14:12.060Z,13.10
2022-08-08T21:19:18.245Z,15.60
2022-08-08T21:24:30.001Z,15.90
2022-08-08T21:30:02.799Z,12.10
2022-08-08T21:36:14.097Z,16.50
2022-08-08T21:40:31.314Z,13.50
2022-08-08T21:48:01.185Z,12.60
2022-08-08T21:51:03.595Z,13.70
2022-08-08T21:56:19.799Z,11.50
2022-08-08T22:01:39.079Z,13.90
2022-08-08T22:06:45.393Z,12.30
2022-08-08T22:12:02.613Z,9.00
2022-08-08T22:17:14.816Z,12.00
2022-08-08T22:22:18.968Z,10.70
2022-08-08T22:27:38.479Z,9.90
2022-08-08T22:32:49.220Z,16.30
2022-08-08T22:37:54.777Z,13.90
2022-08-08T22:42:58.943Z,14.00
2022-08-08T22:48:02.768Z,14.00
2022-08-08T22:54:31.404Z,12.30
2022-08-08T22:58:34.623Z,11.40
2022-08-08T23:03:54.683Z,12.20
2022-08-08T23:09:00.222Z,11.80
2022-08-08T23:14:04.053Z,13.40
2022-08-08T23:19:09.317Z,12.10
2022-08-08T23:24:13.046Z,10.60
2022-08-08T23:29:27.004Z,9.10
2022-08-08T23:34:34.327Z,10.50
2022-08-08T23:39:41.940Z,11.80
2022-08-08T23:44:53.336Z,11.90
2022-08-08T23:50:03.160Z,10.40
2022-08-08T23:55:19.524Z,10.10
